createdAt,value
2022-10-21T00:00:34.379Z,4.20
2022-10-21T00:03:01.563Z,4.10
2022-10-21T00:05:29.084Z,4.10
2022-10-21T00:07:56.200Z,4.20
2022-10-21T00:10:23.107Z,4.20
2022-10-21T00:12:50.024Z,4.10
2022-10-21T00:15:16.983Z,4.10
2022-10-21T00:17:43.951Z,4.00
2022-10-21T00:20:12.762Z,4.10
2022-10-21T00:22:40.858Z,4.10
2022-10-21T00:25:09.357Z,4.00
2022-10-21T00:27:37.094Z,4.00
2022-10-21T00:30:07.186Z,4.00
2022-10-21T00:32:34.801Z,4.00
2022-10-21T00:35:01.744Z,6.70
2022-10-21T00:37:32.797Z,3.90
2022-10-21T00:40:00.000Z,3.90
2022-10-21T00:42:35.489Z,3.90
2022-10-21T00:45:05.521Z,3.80
2022-10-21T00:47:44.278Z,3.80
2022-10-21T00:50:31.381Z,3.80
2022-10-21T00:53:00.267Z,3.90
2022-10-21T00:55:32.389Z,3.80
2022-10-21T00:58:01.002Z,3.90
2022-10-21T01:00:28.139Z,3.80
2022-10-21T01:02:55.498Z,3.80
2022-10-21T01:05:23.494Z,3.60
2022-10-21T01:07:51.027Z,3.60
2022-10-21T01:10:18.869Z,3.80
2022-10-21T01:13:12.234Z,3.70
2022-10-21T01:16:05.691Z,3.70
2022-10-21T01:19:39.860Z,3.60
2022-10-21T01:23:02.877Z,3.60
2022-10-21T01:25:41.574Z,3.60
2022-10-21T01:28:31.180Z,3.60
2022-10-21T01:31:25.628Z,3.60
2022-10-21T01:34:34.054Z,3.60
2022-10-21T01:37:17.099Z,3.50
2022-10-21T01:39:52.449Z,3.50
2022-10-21T01:42:42.394Z,3.40
2022-10-21T01:45:19.103Z,5.20
2022-10-21T01:47:59.193Z,3.40
2022-10-21T01:50:29.971Z,3.30
2022-10-21T01:53:09.170Z,3.30
2022-10-21T01:55:38.019Z,3.30
2022-10-21T01:58:11.907Z,3.30
2022-10-21T02:00:41.218Z,3.30
2022-10-21T02:03:13.744Z,3.40
2022-10-21T02:05:40.832Z,3.40
2022-10-21T02:08:07.997Z,3.40
2022-10-21T02:10:45.118Z,3.30
2022-10-21T02:13:17.932Z,5.80
2022-10-21T02:15:45.407Z,6.50
2022-10-21T02:18:23.209Z,3.10
2022-10-21T02:21:09.218Z,3.20
2022-10-21T02:23:55.982Z,3.10
2022-10-21T02:26:24.942Z,3.10
2022-10-21T02:28:54.296Z,3.10
2022-10-21T02:31:45.953Z,3.00
2022-10-21T02:35:04.058Z,3.00
2022-10-21T02:37:41.499Z,3.00
2022-10-21T02:40:53.313Z,2.90
2022-10-21T02:43:33.141Z,3.00
2022-10-21T02:46:06.606Z,3.00
2022-10-21T02:48:34.662Z,2.90
2022-10-21T02:51:04.658Z,2.80
2022-10-21T02:53:31.904Z,2.80
2022-10-21T02:55:58.798Z,2.80
2022-10-21T02:58:25.935Z,2.80
2022-10-21T03:00:53.162Z,2.70
2022-10-21T03:03:20.190Z,2.80
2022-10-21T03:05:47.408Z,2.80
2022-10-21T03:08:14.379Z,2.80
2022-10-21T03:10:41.315Z,2.70
2022-10-21T03:13:08.191Z,2.70
2022-10-21T03:15:35.162Z,2.70
2022-10-21T03:18:02.061Z,2.60
2022-10-21T03:20:28.950Z,2.60
2022-10-21T03:22:55.809Z,2.60
2022-10-21T03:25:22.672Z,2.60
2022-10-21T03:27:53.733Z,2.60
2022-10-21T03:30:20.643Z,2.60
2022-10-21T03:32:47.498Z,2.60
2022-10-21T03:35:15.184Z,2.50
2022-10-21T03:37:42.010Z,2.50
2022-10-21T03:40:12.281Z,2.40
2022-10-21T03:42:39.772Z,2.50
2022-10-21T03:45:07.646Z,2.60
2022-10-21T03:47:34.495Z,2.60
2022-10-21T03:50:01.400Z,4.30
2022-10-21T03:52:28.471Z,5.70
2022-10-21T03:54:55.348Z,2.60
2022-10-21T03:57:22.268Z,2.60
2022-10-21T03:59:49.193Z,2.60
2022-10-21T04:02:16.183Z,2.50
2022-10-21T04:04:43.105Z,2.60
2022-10-21T04:07:10.506Z,2.50
2022-10-21T04:09:37.416Z,2.50
2022-10-21T04:12:04.347Z,2.50
2022-10-21T04:14:31.238Z,2.50
2022-10-21T04:17:06.901Z,2.50
2022-10-21T04:19:34.131Z,2.40
2022-10-21T04:22:01.021Z,2.50
2022-10-21T04:24:27.993Z,2.50
2022-10-21T04:26:54.916Z,2.60
2022-10-21T04:29:21.915Z,2.50
2022-10-21T04:31:49.063Z,2.50
2022-10-21T04:34:16.093Z,4.10
2022-10-21T04:36:43.226Z,2.70
2022-10-21T04:39:10.171Z,2.70
2022-10-21T04:41:37.035Z,5.80
2022-10-21T04:44:04.967Z,2.80
2022-10-21T04:46:32.101Z,2.70
2022-10-21T04:48:59.062Z,2.80
2022-10-21T04:51:26.020Z,2.80
2022-10-21T04:53:52.969Z,2.80
2022-10-21T04:56:19.813Z,2.80
2022-10-21T04:58:46.770Z,2.90
2022-10-21T05:01:13.745Z,3.00
2022-10-21T05:03:40.744Z,3.00
2022-10-21T05:06:07.753Z,2.90
2022-10-21T05:08:34.725Z,3.00
2022-10-21T05:11:03.162Z,3.00
2022-10-21T05:13:30.691Z,3.00
2022-10-21T05:16:02.793Z,3.00
2022-10-21T05:18:30.894Z,3.00
2022-10-21T05:20:58.690Z,3.00
2022-10-21T05:23:26.911Z,3.00
2022-10-21T05:25:53.934Z,3.00
2022-10-21T05:28:21.579Z,3.10
2022-10-21T05:30:49.131Z,3.00
2022-10-21T05:33:16.360Z,2.90
2022-10-21T05:35:43.351Z,2.90
2022-10-21T05:38:10.546Z,3.00
2022-10-21T05:40:37.437Z,3.00
2022-10-21T05:43:04.428Z,3.00
2022-10-21T05:45:31.357Z,3.00
2022-10-21T05:47:58.258Z,3.00
2022-10-21T05:50:25.183Z,3.10
2022-10-21T05:52:53.144Z,3.10
2022-10-21T05:55:21.621Z,3.20
2022-10-21T05:57:48.513Z,3.20
2022-10-21T06:00:16.049Z,6.10
2022-10-21T06:02:43.046Z,3.20
2022-10-21T06:05:09.977Z,3.20
2022-10-21T06:07:37.541Z,3.20
2022-10-21T06:10:05.570Z,3.30
2022-10-21T06:12:32.455Z,3.30
2022-10-21T06:14:59.447Z,3.30
2022-10-21T06:17:26.371Z,3.20
2022-10-21T06:19:53.252Z,3.30
2022-10-21T06:22:20.153Z,3.30
2022-10-21T06:24:47.306Z,3.40
2022-10-21T06:27:14.384Z,3.40
2022-10-21T06:29:41.412Z,3.40
2022-10-21T06:32:08.309Z,3.50
2022-10-21T06:34:35.206Z,3.50
2022-10-21T06:37:02.295Z,3.50
2022-10-21T06:39:29.363Z,3.60
2022-10-21T06:41:56.302Z,3.60
2022-10-21T06:44:23.248Z,3.60
2022-10-21T06:46:50.135Z,3.60
2022-10-21T06:49:17.078Z,3.60
2022-10-21T06:51:43.947Z,3.80
2022-10-21T06:54:10.875Z,3.70
2022-10-21T06:56:39.798Z,3.80
2022-10-21T06:59:06.672Z,3.80
2022-10-21T07:01:48.168Z,3.80
2022-10-21T07:04:20.551Z,3.90
2022-10-21T07:06:49.009Z,4.90
2022-10-21T07:09:16.683Z,4.00
2022-10-21T07:11:44.604Z,4.10
2022-10-21T07:14:12.564Z,4.10
2022-10-21T07:16:39.448Z,4.20
2022-10-21T07:19:07.011Z,4.30
2022-10-21T07:21:34.234Z,4.40
2022-10-21T07:24:01.557Z,5.50
2022-10-21T07:26:31.183Z,7.20
2022-10-21T07:29:00.852Z,4.40
2022-10-21T07:31:32.425Z,4.50
2022-10-21T07:34:01.613Z,4.60
2022-10-21T07:36:33.426Z,4.70
2022-10-21T07:39:04.678Z,4.70
2022-10-21T07:41:37.327Z,4.80
2022-10-21T07:44:06.074Z,4.90
2022-10-21T07:46:33.616Z,5.00
2022-10-21T07:49:00.968Z,5.10
2022-10-21T07:51:30.201Z,5.20
2022-10-21T07:53:59.791Z,5.30
2022-10-21T07:56:34.853Z,5.40
2022-10-21T07:59:02.930Z,8.50
2022-10-21T08:01:30.108Z,5.70
2022-10-21T08:03:58.405Z,5.80
2022-10-21T08:06:26.726Z,6.00
2022-10-21T08:08:53.895Z,6.00
2022-10-21T08:11:27.735Z,6.20
2022-10-21T08:13:55.339Z,6.20
2022-10-21T08:16:22.682Z,6.30
2022-10-21T08:18:49.759Z,6.40
2022-10-21T08:21:17.531Z,6.40
2022-10-21T08:23:44.467Z,6.50
2022-10-21T08:26:14.453Z,6.40
2022-10-21T08:28:42.471Z,6.30
2022-10-21T08:31:19.870Z,6.40
2022-10-21T08:33:47.519Z,6.40
2022-10-21T08:36:21.818Z,6.40
2022-10-21T08:38:49.742Z,6.50
2022-10-21T08:41:41.924Z,6.50
2022-10-21T08:44:30.606Z,6.50
2022-10-21T08:47:37.035Z,6.70
2022-10-21T08:50:14.435Z,6.70
2022-10-21T08:52:53.785Z,6.80
2022-10-21T08:55:37.769Z,6.90
2022-10-21T08:58:05.615Z,6.90
2022-10-21T09:00:52.576Z,6.90
2022-10-21T09:03:54.490Z,7.00
2022-10-21T09:06:41.599Z,7.00
2022-10-21T09:09:41.182Z,7.00
2022-10-21T09:12:23.051Z,7.00
2022-10-21T09:15:11.485Z,7.10
2022-10-21T09:18:00.416Z,7.20
2022-10-21T09:20:39.733Z,7.40
2022-10-21T09:23:21.605Z,7.50
2022-10-21T09:26:02.253Z,7.80
2022-10-21T09:28:31.066Z,7.90
2022-10-21T09:31:01.170Z,8.10
2022-10-21T09:33:34.831Z,8.20
2022-10-21T09:36:26.972Z,8.30
2022-10-21T09:39:24.579Z,8.40
2022-10-21T09:41:59.164Z,8.50
2022-10-21T09:44:28.783Z,8.50
2022-10-21T09:46:55.698Z,8.60
2022-10-21T09:50:06.529Z,8.70
2022-10-21T09:52:22.551Z,9.80
2022-10-21T09:54:49.937Z,8.90
2022-10-21T09:57:45.510Z,8.90
2022-10-21T10:00:14.034Z,9.00
2022-10-21T10:02:45.514Z,9.10
2022-10-21T10:05:43.976Z,9.10
2022-10-21T10:08:45.019Z,9.10
2022-10-21T10:11:18.125Z,9.20
2022-10-21T10:13:49.073Z,9.20
2022-10-21T10:16:30.602Z,9.20
2022-10-21T10:19:28.127Z,9.20
2022-10-21T10:22:12.327Z,9.30
2022-10-21T10:24:41.924Z,9.40
2022-10-21T10:27:19.354Z,9.50
2022-10-21T10:29:53.522Z,9.60
2022-10-21T10:32:24.101Z,9.70
2022-10-21T10:34:58.018Z,9.70
2022-10-21T10:37:27.991Z,9.80
2022-10-21T10:40:00.513Z,9.90
2022-10-21T10:42:35.395Z,10.90
2022-10-21T10:45:22.747Z,9.90
2022-10-21T10:47:57.800Z,10.00
2022-10-21T10:50:46.854Z,10.00
2022-10-21T10:53:33.678Z,10.10
2022-10-21T10:56:06.324Z,10.30
2022-10-21T10:58:38.094Z,10.00
2022-10-21T11:01:13.138Z,10.00
2022-10-21T11:03:55.676Z,10.00
2022-10-21T11:06:36.058Z,10.00
2022-10-21T11:09:04.247Z,10.10
2022-10-21T11:11:38.314Z,10.10
2022-10-21T11:14:18.860Z,12.90
2022-10-21T11:17:19.049Z,10.00
2022-10-21T11:20:03.286Z,10.00
2022-10-21T11:22:45.462Z,10.00
2022-10-21T11:25:37.740Z,10.00
2022-10-21T11:28:19.076Z,10.00
2022-10-21T11:31:09.278Z,10.10
2022-10-21T11:34:15.922Z,10.10
2022-10-21T11:37:13.342Z,10.10
2022-10-21T11:39:49.430Z,10.10
2022-10-21T11:42:41.082Z,10.10
2022-10-21T11:45:56.801Z,10.10
2022-10-21T11:49:05.883Z,10.10
2022-10-21T11:51:42.400Z,10.20
2022-10-21T11:54:30.426Z,10.20
2022-10-21T11:57:36.047Z,10.20
2022-10-21T12:00:23.155Z,10.20
2022-10-21T12:03:29.138Z,10.20
2022-10-21T12:06:30.124Z,10.10
2022-10-21T12:09:14.267Z,10.10
2022-10-21T12:11:48.657Z,10.80
2022-10-21T12:14:30.134Z,10.10
2022-10-21T12:17:01.038Z,10.10
2022-10-21T12:19:28.759Z,10.10
2022-10-21T12:21:55.890Z,10.10
2022-10-21T12:24:34.523Z,10.10
2022-10-21T12:27:49.733Z,10.10
2022-10-21T12:30:26.515Z,10.10
2022-10-21T12:33:29.781Z,10.10
2022-10-21T12:36:25.035Z,10.10
2022-10-21T12:38:57.830Z,10.10
2022-10-21T12:41:24.546Z,10.10
2022-10-21T12:44:05.536Z,10.00
2022-10-21T12:47:34.345Z,10.00
2022-10-21T12:50:14.428Z,10.10
2022-10-21T12:52:46.374Z,10.10
2022-10-21T12:55:24.601Z,10.10
2022-10-21T12:58:06.152Z,10.10
2022-10-21T13:00:33.067Z,10.10
2022-10-21T13:03:45.670Z,10.40
2022-10-21T13:06:13.579Z,10.20
2022-10-21T13:08:55.351Z,10.20
2022-10-21T13:11:35.602Z,10.30
2022-10-21T13:14:40.753Z,10.30
2022-10-21T13:17:22.578Z,10.40
2022-10-21T13:20:09.715Z,10.40
2022-10-21T13:22:40.721Z,10.40
2022-10-21T13:25:21.321Z,10.40
2022-10-21T13:28:17.207Z,10.40
2022-10-21T13:30:50.169Z,10.40
2022-10-21T13:33:24.016Z,10.40
2022-10-21T13:36:04.100Z,10.40
2022-10-21T13:38:34.184Z,10.40
2022-10-21T13:41:27.909Z,11.90
2022-10-21T13:44:02.195Z,10.50
2022-10-21T13:46:39.109Z,10.50
2022-10-21T13:49:32.164Z,10.40
2022-10-21T13:51:59.123Z,10.40
2022-10-21T13:54:34.553Z,10.40
2022-10-21T13:57:07.548Z,10.40
2022-10-21T13:59:35.327Z,10.30
2022-10-21T14:02:03.577Z,10.30
2022-10-21T14:04:33.608Z,10.30
2022-10-21T14:07:05.620Z,10.30
2022-10-21T14:09:44.687Z,10.30
2022-10-21T14:12:34.928Z,10.30
2022-10-21T14:15:13.035Z,10.30
2022-10-21T14:17:44.326Z,10.30
2022-10-21T14:20:19.615Z,10.30
2022-10-21T14:22:50.298Z,10.20
2022-10-21T14:25:18.958Z,10.20
2022-10-21T14:27:47.200Z,10.20
2022-10-21T14:30:24.497Z,10.20
2022-10-21T14:32:52.291Z,10.20
2022-10-21T14:35:19.016Z,10.20
2022-10-21T14:38:03.624Z,10.20
2022-10-21T14:40:41.441Z,10.20
2022-10-21T14:43:31.757Z,10.20
2022-10-21T14:45:59.179Z,10.20
2022-10-21T14:48:36.499Z,10.20
2022-10-21T14:51:15.253Z,10.20
2022-10-21T14:53:57.428Z,10.20
2022-10-21T14:56:42.763Z,10.20
2022-10-21T14:59:48.060Z,10.20
2022-10-21T15:02:30.705Z,10.10
2022-10-21T15:05:01.026Z,10.10
2022-10-21T15:07:35.017Z,10.10
2022-10-21T15:10:04.827Z,10.10
2022-10-21T15:12:47.242Z,10.10
2022-10-21T15:15:54.207Z,10.10
2022-10-21T15:18:32.265Z,10.00
2022-10-21T15:21:36.436Z,10.00
2022-10-21T15:24:04.603Z,10.00
2022-10-21T15:26:41.338Z,10.00
2022-10-21T15:29:20.430Z,10.00
2022-10-21T15:31:47.566Z,10.00
2022-10-21T15:34:16.251Z,10.00
2022-10-21T15:36:44.087Z,10.00
2022-10-21T15:39:12.268Z,9.90
2022-10-21T15:41:39.731Z,9.90
2022-10-21T15:44:19.599Z,11.00
2022-10-21T15:46:47.891Z,9.90
2022-10-21T15:49:32.581Z,9.90
2022-10-21T15:51:59.766Z,9.90
2022-10-21T15:54:26.583Z,10.40
2022-10-21T15:56:55.383Z,9.90
2022-10-21T15:59:32.868Z,9.90
2022-10-21T16:02:00.486Z,9.90
2022-10-21T16:04:27.761Z,9.90
2022-10-21T16:06:55.708Z,9.90
2022-10-21T16:09:27.371Z,9.90
2022-10-21T16:12:00.347Z,12.70
2022-10-21T16:14:30.515Z,9.90
2022-10-21T16:17:01.455Z,9.90
2022-10-21T16:19:29.462Z,9.80
2022-10-21T16:21:56.866Z,9.80
2022-10-21T16:24:23.680Z,9.80
2022-10-21T16:26:50.717Z,12.70
2022-10-21T16:29:24.320Z,9.80
2022-10-21T16:31:51.910Z,9.80
2022-10-21T16:34:19.695Z,9.80
2022-10-21T16:36:46.599Z,9.80
2022-10-21T16:39:22.210Z,9.80
2022-10-21T16:41:49.143Z,12.30
2022-10-21T16:44:16.035Z,9.80
2022-10-21T16:46:54.958Z,9.80
2022-10-21T16:49:27.360Z,9.80
2022-10-21T16:51:54.852Z,11.10
2022-10-21T16:54:23.842Z,10.70
2022-10-21T16:56:53.378Z,9.80
2022-10-21T16:59:23.017Z,9.80
2022-10-21T17:01:50.060Z,9.80
2022-10-21T17:04:17.900Z,9.80
2022-10-21T17:06:44.887Z,10.70
2022-10-21T17:09:11.802Z,9.80
2022-10-21T17:11:40.964Z,9.70
2022-10-21T17:14:13.964Z,9.70
2022-10-21T17:16:40.916Z,9.70
2022-10-21T17:19:08.051Z,9.70
2022-10-21T17:21:35.137Z,9.70
2022-10-21T17:24:03.899Z,9.80
2022-10-21T17:26:31.374Z,9.80
2022-10-21T17:28:58.264Z,9.70
2022-10-21T17:31:28.793Z,9.70
2022-10-21T17:34:06.175Z,9.70
2022-10-21T17:36:37.677Z,12.50
2022-10-21T17:39:05.628Z,9.70
2022-10-21T17:41:32.659Z,9.70
2022-10-21T17:44:01.855Z,11.30
2022-10-21T17:46:28.922Z,12.00
2022-10-21T17:48:57.698Z,9.70
2022-10-21T17:51:25.438Z,9.60
2022-10-21T17:53:54.179Z,9.70
2022-10-21T17:56:22.305Z,9.70
2022-10-21T17:58:54.984Z,9.70
2022-10-21T18:01:24.601Z,9.60
2022-10-21T18:03:52.557Z,10.50
2022-10-21T18:06:21.103Z,9.50
2022-10-21T18:08:48.081Z,9.60
2022-10-21T18:11:19.475Z,9.70
2022-10-21T18:13:47.806Z,11.50
2022-10-21T18:16:22.006Z,11.50
2022-10-21T18:18:49.876Z,9.70
2022-10-21T18:21:23.496Z,9.70
2022-10-21T18:23:53.469Z,12.10
2022-10-21T18:26:27.911Z,9.60
2022-10-21T18:29:01.765Z,11.00
2022-10-21T18:31:32.585Z,10.60
2022-10-21T18:34:03.142Z,9.60
2022-10-21T18:36:30.992Z,11.90
2022-10-21T18:38:59.914Z,9.60
2022-10-21T18:41:27.098Z,9.60
2022-10-21T18:44:00.193Z,9.60
2022-10-21T18:46:28.703Z,9.50
2022-10-21T18:48:55.630Z,10.20
2022-10-21T18:51:23.848Z,9.60
2022-10-21T18:53:52.990Z,9.90
2022-10-21T18:56:22.270Z,9.50
2022-10-21T18:58:50.098Z,9.60
2022-10-21T19:01:18.948Z,9.60
2022-10-21T19:03:46.401Z,9.60
2022-10-21T19:06:36.330Z,9.60
2022-10-21T19:09:09.221Z,9.60
2022-10-21T19:11:36.246Z,9.60
2022-10-21T19:14:03.237Z,9.50
2022-10-21T19:16:30.663Z,9.50
2022-10-21T19:18:57.797Z,12.70
2022-10-21T19:21:24.864Z,9.50
2022-10-21T19:23:53.487Z,9.60
2022-10-21T19:26:23.132Z,9.90
2022-10-21T19:28:50.980Z,9.50
2022-10-21T19:31:21.157Z,9.50
2022-10-21T19:33:48.108Z,9.50
2022-10-21T19:36:14.983Z,9.40
2022-10-21T19:38:45.127Z,9.50
2022-10-21T19:41:19.181Z,9.50
2022-10-21T19:43:47.536Z,9.50
2022-10-21T19:46:22.201Z,9.40
2022-10-21T19:48:52.239Z,9.50
2022-10-21T19:51:21.945Z,9.50
2022-10-21T19:53:50.283Z,10.40
2022-10-21T19:56:22.191Z,10.50
2022-10-21T19:58:53.033Z,9.40
2022-10-21T20:01:23.439Z,10.80
2022-10-21T20:03:52.777Z,9.40
2022-10-21T20:06:23.772Z,11.70
2022-10-21T20:08:51.154Z,9.40
2022-10-21T20:11:21.022Z,9.40
2022-10-21T20:13:49.568Z,9.40
2022-10-21T20:16:23.332Z,11.10
2022-10-21T20:18:50.454Z,9.40
2022-10-21T20:21:17.553Z,11.50
2022-10-21T20:23:44.711Z,9.30
2022-10-21T20:26:11.975Z,10.30
2022-10-21T20:28:39.201Z,9.80
2022-10-21T20:31:12.682Z,9.40
2022-10-21T20:33:44.792Z,9.40
2022-10-21T20:36:22.204Z,9.40
2022-10-21T20:38:51.166Z,9.40
2022-10-21T20:41:22.113Z,9.40
2022-10-21T20:43:50.899Z,9.40
2022-10-21T20:46:19.863Z,9.30
2022-10-21T20:48:49.558Z,11.10
2022-10-21T20:51:20.518Z,9.40
2022-10-21T20:53:54.015Z,9.40
2022-10-21T20:56:22.226Z,9.40
2022-10-21T20:58:49.476Z,9.40
2022-10-21T21:01:26.666Z,9.40
2022-10-21T21:03:56.302Z,9.40
2022-10-21T21:06:23.458Z,10.20
2022-10-21T21:09:08.624Z,11.70
2022-10-21T21:11:38.711Z,11.30
2022-10-21T21:14:05.942Z,11.90
2022-10-21T21:16:33.186Z,9.40
2022-10-21T21:19:04.529Z,9.40
2022-10-21T21:21:34.984Z,11.60
2022-10-21T21:24:02.803Z,9.40
2022-10-21T21:26:36.526Z,9.40
2022-10-21T21:29:09.043Z,9.30
2022-10-21T21:31:38.595Z,9.40
2022-10-21T21:34:06.934Z,9.40
2022-10-21T21:36:34.648Z,9.40
2022-10-21T21:39:01.525Z,9.40
2022-10-21T21:41:28.909Z,11.70
2022-10-21T21:43:56.937Z,9.30
2022-10-21T21:46:24.241Z,12.20
2022-10-21T21:49:05.466Z,9.30
2022-10-21T21:51:34.944Z,9.30
2022-10-21T21:54:02.662Z,11.60
2022-10-21T21:56:29.591Z,9.30
2022-10-21T21:58:57.880Z,9.30
2022-10-21T22:01:28.577Z,9.30
2022-10-21T22:03:56.260Z,9.30
2022-10-21T22:08:53.401Z,9.30
2022-10-21T22:11:23.346Z,11.30
2022-10-21T22:13:50.398Z,9.20
2022-10-21T22:16:18.693Z,9.40
2022-10-21T22:18:45.829Z,9.30
2022-10-21T22:21:16.475Z,10.90
2022-10-21T22:23:43.843Z,11.00
2022-10-21T22:26:12.596Z,9.50
2022-10-21T22:28:39.787Z,9.20
2022-10-21T22:31:11.791Z,9.30
2022-10-21T22:33:39.528Z,11.50
2022-10-21T22:36:08.044Z,9.20
2022-10-21T22:38:35.033Z,9.30
2022-10-21T22:41:06.105Z,11.20
2022-10-21T22:43:35.422Z,9.40
2022-10-21T22:46:09.858Z,9.30
2022-10-21T22:48:49.042Z,9.30
2022-10-21T22:51:15.984Z,10.00
2022-10-21T22:53:42.916Z,9.30
2022-10-21T22:56:09.788Z,9.30
2022-10-21T22:58:36.750Z,9.20
2022-10-21T23:01:09.766Z,9.20
2022-10-21T23:03:37.219Z,9.20
2022-10-21T23:06:04.761Z,9.20
2022-10-21T23:08:31.860Z,9.20
2022-10-21T23:10:58.914Z,9.20
2022-10-21T23:13:25.958Z,11.70
2022-10-21T23:15:52.875Z,9.10
2022-10-21T23:18:19.747Z,10.00
2022-10-21T23:20:46.586Z,9.10
2022-10-21T23:23:14.009Z,9.10
2022-10-21T23:25:40.861Z,10.90
2022-10-21T23:28:09.942Z,9.10
2022-10-21T23:30:37.805Z,10.50
2022-10-21T23:33:05.059Z,10.50
2022-10-21T23:35:32.830Z,9.30
2022-10-21T23:37:59.844Z,9.10
2022-10-21T23:40:27.459Z,9.10
2022-10-21T23:42:54.519Z,10.90
2022-10-21T23:45:21.583Z,10.20
2022-10-21T23:47:48.601Z,9.10
2022-10-21T23:50:16.185Z,9.70
2022-10-21T23:52:43.357Z,9.80
2022-10-21T23:55:10.674Z,9.00
2022-10-21T23:57:37.864Z,8.90
